• Join FlightAware (Why Join?)
  • Login
  • US Flag 
04:06PM EST


 

Airport Tracker/Info


-or-


 

Live Flight TrackerFlight Track Log ✈ EJA922 ✈ 10-Jan-2014 ✈ KMKE - KSUA

Flight Track Log - Related Links

Times and Time Zones

All times are in EST time to prevent confusion due to time zone crossing. See the EJA922 flight status page for this flight to view local times or setup timezone preferences in your user account.

Time Position Orientation Groundspeed Altitude Reporting Facility
EST Latitude Longitude Course Direction KTS MPH feet Rate Location/Type
01:15PM 42.9333 -87.9000 216° Southwest 169 194 1,300  Level KMKE
01:15PM 42.9167 -87.9167 216° Southwest 202 232 2,600 3,300 Climbing KMKE
01:16PM 42.8611 -87.9672 214° Southwest 231 266 6,500 3,360 Climbing Chicago Center
01:17PM 42.8122 -88.0133 215° Southwest 216 249 9,600 2,580 Climbing Chicago Center
01:18PM 42.7511 -88.0519 205° Southwest 250 288 11,900 2,580 Climbing Chicago Center
01:19PM 42.6703 -88.0331 170° South 296 341 15,000 2,460 Climbing Chicago Center
01:20PM 42.5803 -88.0244 176° South 320 368 17,000 1,920 Climbing Chicago Center
01:21PM 42.4775 -88.0183 177° South 362 417 19,000 1,860 Climbing Chicago Center
01:22PM 42.3686 -88.0119 178° South 386 444 20,900 2,040 Climbing Chicago Center
01:23PM 42.2331 -88.0042 178° South 401 461 23,200 1,980 Climbing Chicago Center
01:24PM 42.1233 -87.9972 177° South 398 458 25,000 1,740 Climbing Chicago Center
01:25PM 42.0147 -87.9906 177° South 391 450 26,800 1,560 Climbing Chicago Center
01:26PM 41.9061 -87.9839 177° South 391 450 28,300 1,260 Climbing Chicago Center
01:27PM 41.7939 -87.9678 174° South 403 464 29,400 1,020 Climbing Chicago Center
01:28PM 41.6789 -87.9319 167° South 421 484 30,500 1,020 Climbing Chicago Center
01:29PM 41.5639 -87.8939 166° South 422 486 31,600 1,020 Climbing Chicago Center
01:30PM 41.4456 -87.8556 166° South 427 491 32,700 1,020 Climbing Chicago Center
01:32PM 41.3278 -87.8358 173° South 420 483 33,800 1,080 Climbing Chicago Center
01:33PM 41.1892 -87.8319 179° South 413 475 35,000 1,020 Climbing Chicago Center
01:34PM 41.0708 -87.8297 179° South 422 486 36,000 960 Climbing Chicago Center
01:35PM 40.9519 -87.8267 179° South 427 491 37,000 960 Climbing Chicago Center
01:36PM 40.8303 -87.8233 179° South 437 503 38,000 960 Climbing Chicago Center
01:37PM 40.7058 -87.8206 179° South 446 513 39,000 960 Climbing Chicago Center
01:38PM 40.5794 -87.7972 172° South 461 531 40,000 960 Climbing Chicago Center
01:39PM 40.4525 -87.7633 169° South 466 536 41,000 480 Climbing Chicago Center
01:40PM 40.2992 -87.7219 168° South 470 541 41,000  Level Chicago Center
01:41PM 40.1747 -87.6897 169° South 480 552 41,000  Level Chicago Center
01:42PM 40.0433 -87.6544 168° South 483 556 41,000  Level Chicago Center
01:42PM 39.9622 -87.6350 170° South 481 554 41,000  Level Indianapolis Center
01:43PM 39.9131 -87.6211 168° South 482 555 41,000  Level Chicago Center
01:43PM 39.8314 -87.6011 169° South 482 555 41,000  Level Indianapolis Center
01:44PM 39.7019 -87.5672 169° South 480 552 41,000  Level Indianapolis Center
01:45PM 39.5708 -87.5333 169° South 483 556 41,000  Level Indianapolis Center
01:46PM 39.4411 -87.5011 169° South 480 552 41,000  Level Indianapolis Center
01:47PM 39.3131 -87.4672 168° South 474 545 41,000  Level Indianapolis Center
01:48PM 39.1583 -87.4283 169° South 475 547 41,000  Level Indianapolis Center
01:49PM 39.0289 -87.3953 169° South 478 550 41,000  Level Indianapolis Center
01:51PM 38.8981 -87.3619 169° South 478 550 41,000  Level Indianapolis Center
01:52PM 38.7672 -87.3275 168° South 478 550 41,000  Level Indianapolis Center
01:53PM 38.6383 -87.2953 169° South 473 544 41,000  Level Indianapolis Center
01:54PM 38.5114 -87.2636 169° South 467 537 41,000  Level Indianapolis Center
01:55PM 38.3839 -87.2319 169° South 469 540 41,000  Level Indianapolis Center
01:56PM 38.2419 -87.2000 170° South 473 544 41,000  Level Indianapolis Center
01:57PM 38.1017 -87.1614 168° South 483 556 41,000  Level Indianapolis Center
01:58PM 37.9700 -87.1294 169° South 484 557 41,000  Level Indianapolis Center
01:59PM 37.8372 -87.0967 169° South 485 558 41,000  Level Indianapolis Center
02:00PM 37.7042 -87.0636 169° South 486 559 41,000  Level Indianapolis Center
02:01PM 37.5708 -87.0322 169° South 486 559 41,000  Level Indianapolis Center
02:02PM 37.4192 -86.9933 168° South 484 557 41,000  Level Indianapolis Center
02:03PM 37.2847 -86.9619 169° South 485 558 41,000  Level Indianapolis Center
02:04PM 37.1525 -86.9294 169° South 479 551 41,000  Level Indianapolis Center
02:05PM 37.0203 -86.8969 169° South 480 552 41,000  Level Indianapolis Center
02:06PM 36.8875 -86.8647 169° South 480 552 41,000  Level Indianapolis Center
02:07PM 36.7100 -86.8208 169° South 481 554 41,000  Level Memphis Center
02:08PM 36.5758 -86.7883 169° South 483 556 41,000  Level Memphis Center
02:09PM 36.4411 -86.7556 169° South 483 556 41,000  Level Memphis Center
02:10PM 36.3017 -86.7222 169° South 487 560 41,000  Level Memphis Center
02:11PM 36.1644 -86.6908 170° South 489 563 41,000  Level Memphis Center
02:12PM 36.0319 -86.6339 161° South 496 571 41,000  Level Memphis Center
02:13PM 35.8992 -86.5675 158° South 507 583 41,000  Level Memphis Center
02:14PM 35.7703 -86.5033 158° South 499 574 41,000  Level Memphis Center
02:15PM 35.6383 -86.4389 158° South 502 578 41,000  Level Memphis Center
02:16PM 35.5078 -86.3742 158° South 501 577 41,000  Level Memphis Center
02:17PM 35.3767 -86.3103 158° South 502 578 41,000  Level Memphis Center
02:19PM 35.2231 -86.2356 158° South 503 579 41,000  Level Memphis Center
02:20PM 35.0914 -86.1711 158° South 503 579 41,000  Level Memphis Center
02:21PM 34.9611 -86.1083 158° South 503 579 41,000  Level Memphis Center
02:22PM 34.8297 -86.0444 158° South 506 582 41,000  Level Memphis Center
02:23PM 34.6869 -85.9739 158° South 509 586 41,000  Level Atlanta Center
02:24PM 34.5544 -85.9103 158° South 509 586 41,000  Level Atlanta Center
02:25PM 34.4197 -85.8467 159° South 509 586 41,000  Level Atlanta Center
02:26PM 34.2767 -85.7808 159° South 504 580 41,000  Level Atlanta Center
02:27PM 34.1458 -85.7206 159° South 509 586 41,000  Level Atlanta Center
02:28PM 34.0153 -85.6578 158° South 509 586 41,000  Level Atlanta Center
02:29PM 33.8950 -85.6056 160° South 509 586 41,000  Level Atlanta Center
02:30PM 33.7642 -85.5431 158° South 511 588 41,000  Level Atlanta Center
02:31PM 33.6294 -85.4783 158° South 511 588 41,000  Level Atlanta Center
02:32PM 33.4964 -85.4189 160° South 511 588 41,000  Level Atlanta Center
02:33PM 33.3594 -85.3569 159° South 511 588 41,000  Level Atlanta Center
02:34PM 33.2306 -85.2953 158° South 516 594 41,000  Level Atlanta Center
02:35PM 33.0914 -85.2339 160° South 525 604 41,000  Level Atlanta Center
02:36PM 32.9542 -85.1753 160° South 525 604 41,000  Level Atlanta Center
02:37PM 32.8167 -85.1339 166° South 507 583 41,000  Level Atlanta Center
02:38PM 32.6772 -85.0803 162° South 513 590 41,000  Level Atlanta Center
02:39PM 32.5378 -85.0317 164° South 513 590 41,000  Level Atlanta Center
02:40PM 32.4067 -84.9861 164° South 513 590 41,000  Level Atlanta Center
02:41PM 32.2672 -84.9403 164° South 513 590 41,000  Level Atlanta Center
02:43PM 31.9989 -84.8500 164° South 506 582 41,000  Level Jacksonville Center
02:44PM 31.8786 -84.8131 165° South 506 582 41,000  Level Jacksonville Center
02:45PM 31.7475 -84.7689 164° South 501 577 41,000  Level Jacksonville Center
02:46PM 31.6147 -84.7247 164° South 501 577 41,000  Level Jacksonville Center
02:47PM 31.4817 -84.6806 164° South 495 570 41,000  Level Jacksonville Center
02:48PM 31.3342 -84.6317 164° South 490 564 41,000  Level Jacksonville Center
02:49PM 31.1989 -84.5878 164° South 490 564 41,000  Level Jacksonville Center
02:50PM 31.0658 -84.5442 164° South 490 564 41,000  Level Jacksonville Center
02:51PM 30.9328 -84.4983 164° South 490 564 41,000  Level Jacksonville Center
02:52PM 30.8022 -84.4308 156° South 496 571 41,000  Level Jacksonville Center
02:53PM 30.6781 -84.3322 146° Southeast 508 585 41,000  Level Jacksonville Center
02:54PM 30.5539 -84.2339 146° Southeast 533 613 41,000  Level Jacksonville Center
02:55PM 30.4317 -84.1381 146° Southeast 539 620 41,000  Level Jacksonville Center
02:56PM 30.3053 -84.0378 146° Southeast 545 627 41,000  Level Jacksonville Center
02:57PM 30.1828 -83.9403 145° Southeast 545 627 41,000  Level Jacksonville Center
02:58PM 30.0564 -83.8453 147° Southeast 545 627 41,000 -60 Level Jacksonville Center
02:59PM 29.9317 -83.7458 145° Southeast 545 627 40,900  Descending Jacksonville Center
03:00PM 29.8050 -83.6514 147° Southeast 545 627 41,000  Climbing Jacksonville Center
03:01PM 29.6803 -83.5572 147° Southeast 545 627 41,000  Level Jacksonville Center
03:02PM 29.5533 -83.4583 146° Southeast 545 627 41,000  Level Jacksonville Center
03:03PM 29.4283 -83.3622 146° Southeast 545 627 41,000  Level Jacksonville Center
03:04PM 29.3036 -83.2664 146° Southeast 545 627 41,000  Level Jacksonville Center
03:05PM 29.1786 -83.1686 146° Southeast 545 627 41,000  Level Jacksonville Center
03:06PM 29.0514 -83.0731 147° Southeast 540 621 41,000  Level Jacksonville Center
03:07PM 28.9242 -82.9781 147° Southeast 545 627 41,000  Level Jacksonville Center
03:08PM 28.7989 -82.8856 147° Southeast 545 627 41,000  Level Jacksonville Center
03:09PM 28.7008 -82.8097 146° Southeast 545 627 41,000  Level Jacksonville Center
03:10PM 28.5650 -82.7058 146° Southeast 545 627 41,000  Level Jacksonville Center
03:11PM 28.4375 -82.6117 147° Southeast 545 627 41,000 -120 Level Jacksonville Center
03:12PM 28.3122 -82.5178 147° Southeast 545 627 40,800 -1,920 Descending Jacksonville Center
03:14PM 28.0361 -82.3183 147° Southeast 542 624 35,000 -1,860 Descending Miami Center
03:15PM 27.9067 -82.2675 161° South 504 580 35,000  Level Miami Center
03:16PM 27.7667 -82.2161 162° South 510 587 35,000 -120 Level Miami Center
03:17PM 27.6164 -82.1622 162° South 516 594 34,800 -1,320 Descending Miami Center
03:18PM 27.4867 -82.1164 163° South 505 581 32,400 -2,460 Descending Miami Center
03:19PM 27.3547 -82.0708 163° South 500 575 29,900 -2,580 Descending Miami Center
03:20PM 27.2353 -82.0303 163° South 493 567 27,300 -2,580 Descending Miami Center
03:21PM 27.1053 -81.9872 164° South 493 567 24,800 -2,100 Descending Miami Center
03:22PM 26.9758 -81.9303 159° South 471 542 23,200 -1,920 Descending Miami Center
03:23PM 26.8742 -81.8467 144° Southeast 444 511 21,000 -2,100 Descending Miami Center
03:24PM 26.7769 -81.7636 143° Southeast 449 517 19,000 -1,020 Descending Miami Center
03:25PM 26.7053 -81.6536 126° Southeast 437 503 19,000  Level Miami Center
03:26PM 26.7228 -81.5056 82° East 410 472 19,000 -1,020 Level Miami Center
03:27PM 26.7500 -81.3717 77° East 429 494 17,000 -2,520 Descending Miami Center
03:28PM 26.7811 -81.2358 76° East 443 510 14,000 -3,000 Descending Miami Center
03:29PM 26.8097 -81.1181 75° East 416 479 11,000 -2,100 Descending Miami Center
03:30PM 26.8253 -81.0186 80° East 379 436 9,900 -600 Descending Miami Center
03:31PM 26.8367 -80.9028 84° East 346 398 9,900  Level Miami Center
03:32PM 26.8269 -80.8092 97° East 314 361 9,900  Level Miami Center
03:33PM 26.8042 -80.7247 107° East 293 337 9,900  Level Miami Center
03:34PM 26.8453 -80.6656 52° Northeast 247 284 9,900 -540 Level Miami Center
03:35PM 26.9056 -80.6000 44° Northeast 254 292 8,900 -1,500 Descending Miami Center
03:36PM 26.9611 -80.5411 43° Northeast 267 307 6,900 -2,040 Descending Miami Center
03:37PM 27.0169 -80.4825 43° Northeast 275 316 4,900 -2,040 Descending Miami Center
03:38PM 27.0664 -80.4325 42° Northeast 275 316 2,900 -1,260 Descending Miami Center
03:39PM 27.1156 -80.3803 43° Northeast 259 298 2,400 -540 Descending Miami Center
03:41PM 27.1667 -80.2167 North  Level FlightAware Approximate
03:48PM 27.1817 -80.2213 North  Level Estimated
03:49PM 27.1817 -80.2213 North  Level Estimated
03:50PM 27.1817 -80.2213 North  Level Estimated
03:51PM 27.1817 -80.2213 North  Level Estimated